createdAt,value
2019-01-17T00:00:45.028Z,0.00
2019-01-17T00:01:45.026Z,0.00
2019-01-17T00:02:44.856Z,0.00
2019-01-17T00:03:44.787Z,0.00
2019-01-17T00:04:44.838Z,0.00
2019-01-17T00:05:44.605Z,0.00
2019-01-17T00:06:44.511Z,0.00
2019-01-17T00:07:45.475Z,0.00
2019-01-17T00:08:44.366Z,0.00
2019-01-17T00:09:44.468Z,0.00
2019-01-17T00:10:44.176Z,0.00
2019-01-17T00:11:44.082Z,0.00
2019-01-17T00:12:44.074Z,0.00
2019-01-17T00:13:43.920Z,0.00
2019-01-17T00:14:43.853Z,0.00
2019-01-17T00:15:43.895Z,0.00
2019-01-17T00:16:43.654Z,0.00
2019-01-17T00:17:43.573Z,0.00
2019-01-17T00:18:43.501Z,0.00
2019-01-17T00:19:43.415Z,0.00
2019-01-17T00:20:43.313Z,0.00
2019-01-17T00:21:43.314Z,0.00
2019-01-17T00:22:43.145Z,0.00
2019-01-17T00:23:43.124Z,0.00
2019-01-17T00:24:42.980Z,0.00
2019-01-17T00:25:42.937Z,0.00
2019-01-17T00:26:42.796Z,0.00
2019-01-17T00:27:42.709Z,0.00
2019-01-17T00:28:42.745Z,0.00
2019-01-17T00:29:42.552Z,0.00
2019-01-17T00:30:42.455Z,0.00
2019-01-17T00:31:42.559Z,0.00
2019-01-17T00:32:42.281Z,0.00
2019-01-17T00:33:42.202Z,0.00
2019-01-17T00:34:42.409Z,0.00
2019-01-17T00:35:42.023Z,0.00
2019-01-17T00:36:41.939Z,0.00
2019-01-17T00:37:41.990Z,0.00
2019-01-17T00:38:41.781Z,0.00
2019-01-17T00:39:41.796Z,0.00
2019-01-17T00:40:41.622Z,0.00
2019-01-17T00:41:41.605Z,0.00
2019-01-17T00:42:41.424Z,0.00
2019-01-17T00:43:41.339Z,0.00
2019-01-17T00:44:41.255Z,0.00
2019-01-17T00:45:41.256Z,0.00
2019-01-17T00:46:41.079Z,0.00
2019-01-17T00:47:40.991Z,0.00
2019-01-17T00:48:40.910Z,0.00
2019-01-17T00:49:41.042Z,0.00
2019-01-17T00:50:40.757Z,0.00
2019-01-17T00:51:40.671Z,0.00
2019-01-17T00:52:40.650Z,0.00
2019-01-17T00:53:40.483Z,0.00
2019-01-17T00:54:40.399Z,0.00
2019-01-17T00:55:40.501Z,0.00
2019-01-17T00:56:40.229Z,0.00
2019-01-17T00:57:40.137Z,0.00
2019-01-17T00:58:40.076Z,0.00
2019-01-17T00:59:39.966Z,0.00
2019-01-17T01:00:39.910Z,0.00
2019-01-17T01:01:39.891Z,0.00
2019-01-17T01:02:39.715Z,0.00
2019-01-17T01:03:39.629Z,0.00
2019-01-17T01:04:39.707Z,0.00
2019-01-17T01:05:39.450Z,0.00
2019-01-17T01:06:39.550Z,0.00
2019-01-17T01:07:39.280Z,0.00
2019-01-17T01:08:39.198Z,0.00
2019-01-17T01:09:39.125Z,0.00
2019-01-17T01:10:39.019Z,0.00
2019-01-17T01:11:38.950Z,0.00
2019-01-17T01:12:38.940Z,0.00
2019-01-17T01:13:38.767Z,0.00
2019-01-17T01:14:38.748Z,0.00
2019-01-17T01:15:38.595Z,0.00
2019-01-17T01:16:38.594Z,0.00
2019-01-17T01:17:38.426Z,0.00
2019-01-17T01:18:38.339Z,0.00
2019-01-17T01:19:38.376Z,0.00
2019-01-17T01:20:38.171Z,0.00
2019-01-17T01:21:38.095Z,0.00
2019-01-17T01:22:38.191Z,0.00
2019-01-17T01:23:37.907Z,0.00
2019-01-17T01:24:37.998Z,0.00
2019-01-17T01:25:37.731Z,0.00
2019-01-17T01:26:37.848Z,0.00
2019-01-17T01:27:37.563Z,0.00
2019-01-17T01:28:37.615Z,0.00
2019-01-17T01:29:37.387Z,0.00
2019-01-17T01:30:37.424Z,0.00
2019-01-17T01:31:37.234Z,0.00
2019-01-17T01:32:37.245Z,0.00
2019-01-17T01:33:37.050Z,0.00
2019-01-17T01:34:37.037Z,0.00
2019-01-17T01:35:36.873Z,0.00
2019-01-17T01:36:36.881Z,0.00
2019-01-17T01:37:36.701Z,0.00
2019-01-17T01:38:36.620Z,0.00
2019-01-17T01:39:36.662Z,0.00
2019-01-17T01:40:36.445Z,0.00
2019-01-17T01:41:36.355Z,0.00
2019-01-17T01:42:36.309Z,0.00
2019-01-17T01:43:36.184Z,0.00
2019-01-17T01:44:36.289Z,0.00
2019-01-17T01:45:36.013Z,0.00
2019-01-17T01:46:36.096Z,0.00
2019-01-17T01:47:35.863Z,0.00
2019-01-17T01:48:35.761Z,0.00
2019-01-17T01:49:35.714Z,0.00
2019-01-17T01:50:35.586Z,0.00
2019-01-17T01:51:35.499Z,0.00
2019-01-17T01:52:35.552Z,0.00
2019-01-17T01:53:35.326Z,0.00
2019-01-17T01:54:35.330Z,0.00
2019-01-17T01:55:35.155Z,0.00
2019-01-17T01:56:35.139Z,0.00
2019-01-17T01:57:34.999Z,0.00
2019-01-17T01:58:34.896Z,0.00
2019-01-17T01:59:34.952Z,0.00
2019-01-17T02:00:34.727Z,0.00
2019-01-17T02:01:34.636Z,0.00
2019-01-17T02:02:34.596Z,0.00
2019-01-17T02:03:34.474Z,0.00
2019-01-17T02:04:34.379Z,0.00
2019-01-17T02:05:34.378Z,0.00
2019-01-17T02:06:34.206Z,0.00
2019-01-17T02:07:34.148Z,0.00
2019-01-17T02:08:34.191Z,0.00
2019-01-17T02:09:33.954Z,0.00
2019-01-17T02:10:33.868Z,0.00
2019-01-17T02:11:33.803Z,0.00
2019-01-17T02:12:33.695Z,0.00
2019-01-17T02:13:33.633Z,0.00
2019-01-17T02:14:33.623Z,0.00
2019-01-17T02:15:33.442Z,0.00
2019-01-17T02:16:33.352Z,0.00
2019-01-17T02:17:33.433Z,0.00
2019-01-17T02:18:33.190Z,0.00
2019-01-17T02:19:33.092Z,0.00
2019-01-17T02:20:33.040Z,0.00
2019-01-17T02:21:32.916Z,0.00
2019-01-17T02:22:32.829Z,0.00
2019-01-17T02:23:32.891Z,0.00
2019-01-17T02:24:32.659Z,0.00
2019-01-17T02:25:32.666Z,0.00
2019-01-17T02:26:32.488Z,0.00
2019-01-17T02:27:32.474Z,0.00
2019-01-17T02:28:32.332Z,0.00
2019-01-17T02:29:32.242Z,0.00
2019-01-17T02:30:32.294Z,0.00
2019-01-17T02:31:32.058Z,0.00
2019-01-17T02:32:31.980Z,0.00
2019-01-17T02:33:31.936Z,0.00
2019-01-17T02:34:31.806Z,0.00
2019-01-17T02:35:31.912Z,0.00
2019-01-17T02:36:31.633Z,0.00
2019-01-17T02:37:31.724Z,0.00
2019-01-17T02:38:31.499Z,0.00
2019-01-17T02:39:31.535Z,0.00
2019-01-17T02:40:31.291Z,0.00
2019-01-17T02:41:31.345Z,0.00
2019-01-17T02:42:31.112Z,0.00
2019-01-17T02:43:31.031Z,0.00
2019-01-17T02:44:30.991Z,0.00
2019-01-17T02:45:30.868Z,0.00
2019-01-17T02:46:30.774Z,0.00
2019-01-17T02:47:30.766Z,0.00
2019-01-17T02:48:30.602Z,0.00
2019-01-17T02:49:30.537Z,0.00
2019-01-17T02:50:30.581Z,0.00
2019-01-17T02:51:30.339Z,0.00
2019-01-17T02:52:30.257Z,0.00
2019-01-17T02:53:30.190Z,0.00
2019-01-17T02:54:35.712Z,0.00
2019-01-17T02:55:30.000Z,0.00
2019-01-17T02:56:29.914Z,0.00
2019-01-17T02:57:30.013Z,0.00
2019-01-17T02:58:29.740Z,0.00
2019-01-17T02:59:29.677Z,0.00
2019-01-17T03:00:29.569Z,0.00
2019-01-17T03:01:29.631Z,0.00
2019-01-17T03:02:29.398Z,0.00
2019-01-17T03:03:29.312Z,0.00
2019-01-17T03:04:29.270Z,0.00
2019-01-17T03:05:29.147Z,0.00
2019-01-17T03:06:29.053Z,0.00
2019-01-17T03:07:29.051Z,0.00
2019-01-17T03:08:28.928Z,0.00
2019-01-17T03:09:28.804Z,0.00
2019-01-17T03:10:28.910Z,0.00
2019-01-17T03:11:28.635Z,0.00
2019-01-17T03:12:28.542Z,0.00
2019-01-17T03:13:28.476Z,0.00
2019-01-17T03:14:28.373Z,0.00
2019-01-17T03:15:28.320Z,0.00
2019-01-17T03:16:28.202Z,0.00
2019-01-17T03:17:28.304Z,0.00
2019-01-17T03:18:28.030Z,0.00
2019-01-17T03:19:28.106Z,0.00
2019-01-17T03:20:27.880Z,0.00
2019-01-17T03:21:27.918Z,0.00
2019-01-17T03:22:27.688Z,0.00
2019-01-17T03:23:27.724Z,0.00
2019-01-17T03:24:27.516Z,0.00
2019-01-17T03:25:27.571Z,0.00
2019-01-17T03:26:27.340Z,0.00
2019-01-17T03:27:27.345Z,0.00
2019-01-17T03:28:27.167Z,0.00
2019-01-17T03:29:27.148Z,0.00
2019-01-17T03:30:27.011Z,0.00
2019-01-17T03:31:26.961Z,0.00
2019-01-17T03:32:26.822Z,0.00
2019-01-17T03:33:26.767Z,0.00
2019-01-17T03:34:26.771Z,0.00
2019-01-17T03:35:26.584Z,0.00
2019-01-17T03:36:26.579Z,0.00
2019-01-17T03:37:26.417Z,0.00
2019-01-17T03:38:26.313Z,0.00
2019-01-17T03:39:26.399Z,0.00
2019-01-17T03:40:26.155Z,0.00
2019-01-17T03:41:26.051Z,0.00
2019-01-17T03:42:26.008Z,0.00
2019-01-17T03:43:25.876Z,0.00
2019-01-17T03:44:25.797Z,0.00
2019-01-17T03:45:25.857Z,0.00
2019-01-17T03:46:25.621Z,0.00
2019-01-17T03:47:25.542Z,0.00
2019-01-17T03:48:25.645Z,0.00
2019-01-17T03:49:25.398Z,0.00
2019-01-17T03:50:25.280Z,0.00
2019-01-17T03:51:25.281Z,0.00
2019-01-17T03:52:25.118Z,0.00
2019-01-17T03:53:25.023Z,0.00
2019-01-17T03:54:25.067Z,0.00
2019-01-17T03:55:24.849Z,0.00
2019-01-17T03:56:24.797Z,0.00
2019-01-17T03:57:24.880Z,0.00
2019-01-17T03:58:24.603Z,0.00
2019-01-17T03:59:24.508Z,0.00
2019-01-17T04:00:24.488Z,0.00
2019-01-17T04:01:24.352Z,0.00
2019-01-17T04:02:24.253Z,0.00
2019-01-17T04:03:24.303Z,0.00
2019-01-17T04:04:24.086Z,0.00
2019-01-17T04:05:23.997Z,0.00
2019-01-17T04:06:23.956Z,0.00
2019-01-17T04:07:23.827Z,0.00
2019-01-17T04:08:23.929Z,0.00
2019-01-17T04:09:23.651Z,0.00
2019-01-17T04:10:23.572Z,0.00
2019-01-17T04:11:23.543Z,0.00
2019-01-17T04:12:23.415Z,0.00
2019-01-17T04:13:23.328Z,0.00
2019-01-17T04:14:23.360Z,0.00
2019-01-17T04:15:23.144Z,0.00
2019-01-17T04:16:23.059Z,0.00
2019-01-17T04:17:23.211Z,0.00
2019-01-17T04:18:22.886Z,0.00
2019-01-17T04:19:22.795Z,0.00
2019-01-17T04:20:22.782Z,0.00
2019-01-17T04:21:22.630Z,0.00
2019-01-17T04:22:22.555Z,0.00
2019-01-17T04:23:22.596Z,0.00
2019-01-17T04:24:22.372Z,0.00
2019-01-17T04:25:22.292Z,0.00
2019-01-17T04:26:22.429Z,0.00
2019-01-17T04:27:22.126Z,0.00
2019-01-17T04:28:22.217Z,0.00
2019-01-17T04:29:21.945Z,0.00
2019-01-17T04:30:22.027Z,0.00
2019-01-17T04:31:21.768Z,0.00
2019-01-17T04:32:21.877Z,0.00
2019-01-17T04:33:21.596Z,0.00
2019-01-17T04:34:21.698Z,0.00
2019-01-17T04:35:21.453Z,0.00
2019-01-17T04:36:21.452Z,0.00
2019-01-17T04:37:21.260Z,0.00
2019-01-17T04:38:21.368Z,0.00
2019-01-17T04:39:21.086Z,0.00
2019-01-17T04:40:21.088Z,0.00
2019-01-17T04:41:20.993Z,0.00
2019-01-17T04:42:20.878Z,0.00
2019-01-17T04:43:20.761Z,0.00
2019-01-17T04:44:20.685Z,0.00
2019-01-17T04:45:20.572Z,0.00
2019-01-17T04:46:20.486Z,0.00
2019-01-17T04:47:20.501Z,0.00
2019-01-17T04:48:20.328Z,0.00
2019-01-17T04:49:20.231Z,0.00
2019-01-17T04:50:20.315Z,0.00
2019-01-17T04:51:20.060Z,0.00
2019-01-17T04:52:20.123Z,0.00
2019-01-17T04:53:19.909Z,0.00
2019-01-17T04:54:19.937Z,0.00
2019-01-17T04:55:19.719Z,0.00
2019-01-17T04:56:19.634Z,0.00
2019-01-17T04:57:19.752Z,0.00
2019-01-17T04:58:19.475Z,0.00
2019-01-17T04:59:19.377Z,0.00
2019-01-17T05:00:19.368Z,0.00
2019-01-17T05:01:19.203Z,0.00
2019-01-17T05:02:19.122Z,0.00
2019-01-17T05:03:19.210Z,0.00
2019-01-17T05:04:18.944Z,0.00
2019-01-17T05:05:18.858Z,0.00
2019-01-17T05:06:18.990Z,0.00
2019-01-17T05:07:18.688Z,0.00
2019-01-17T05:08:18.605Z,0.00
2019-01-17T05:09:18.633Z,0.00
2019-01-17T05:10:18.436Z,0.00
2019-01-17T05:11:18.346Z,0.00
2019-01-17T05:12:18.412Z,0.00
2019-01-17T05:13:18.178Z,0.00
2019-01-17T05:14:18.104Z,0.00
2019-01-17T05:15:18.020Z,0.00
2019-01-17T05:16:17.925Z,0.00
2019-01-17T05:17:18.041Z,0.00
2019-01-17T05:18:17.758Z,0.00
2019-01-17T05:19:17.877Z,0.00
2019-01-17T05:20:17.587Z,0.00
2019-01-17T05:21:17.489Z,0.00
2019-01-17T05:22:17.455Z,0.00
2019-01-17T05:23:17.323Z,0.00
2019-01-17T05:24:17.251Z,0.00
2019-01-17T05:25:17.268Z,0.00
2019-01-17T05:26:17.070Z,0.00
2019-01-17T05:27:16.984Z,0.00
2019-01-17T05:28:17.084Z,0.00
2019-01-17T05:29:16.834Z,0.00
2019-01-17T05:30:16.723Z,0.00
2019-01-17T05:31:16.705Z,0.00
2019-01-17T05:32:16.555Z,0.00
2019-01-17T05:33:16.467Z,0.00
2019-01-17T05:34:16.508Z,0.00
2019-01-17T05:35:16.310Z,0.00
2019-01-17T05:36:16.209Z,0.00
2019-01-17T05:37:16.328Z,0.00
2019-01-17T05:38:16.038Z,0.00
2019-01-17T05:39:16.136Z,0.00
2019-01-17T05:40:15.881Z,0.00
2019-01-17T05:41:15.944Z,0.00
2019-01-17T05:42:15.707Z,0.00
2019-01-17T05:43:15.750Z,0.00
2019-01-17T05:44:15.537Z,0.00
2019-01-17T05:45:15.591Z,0.00
2019-01-17T05:46:15.355Z,0.00
2019-01-17T05:47:15.275Z,0.00
2019-01-17T05:48:15.189Z,0.00
2019-01-17T05:49:15.097Z,0.00
2019-01-17T05:50:15.026Z,0.00
2019-01-17T05:51:14.940Z,0.00
2019-01-17T05:52:14.849Z,0.00
2019-01-17T05:53:14.762Z,0.00
2019-01-17T05:54:14.672Z,0.00
2019-01-17T05:55:19.752Z,0.00
2019-01-17T05:56:14.508Z,0.00
2019-01-17T05:57:14.415Z,0.00
2019-01-17T05:58:14.349Z,0.00
2019-01-17T05:59:14.246Z,0.00
2019-01-17T06:00:14.175Z,0.00
2019-01-17T06:01:14.080Z,0.00
2019-01-17T06:02:13.987Z,0.00
2019-01-17T06:03:13.916Z,0.00
2019-01-17T06:04:13.820Z,0.00
2019-01-17T06:05:13.767Z,0.00
2019-01-17T06:06:13.654Z,0.00
2019-01-17T06:07:13.566Z,0.00
2019-01-17T06:08:13.487Z,0.00
2019-01-17T06:09:13.388Z,0.00
2019-01-17T06:10:13.337Z,0.00
2019-01-17T06:11:13.282Z,0.00
2019-01-17T06:12:13.135Z,0.00
2019-01-17T06:13:13.060Z,0.00
2019-01-17T06:14:12.961Z,0.00
2019-01-17T06:15:12.886Z,0.00
2019-01-17T06:16:12.806Z,0.00
2019-01-17T06:17:12.710Z,0.00
2019-01-17T06:18:12.683Z,0.00
2019-01-17T06:19:12.535Z,0.00
2019-01-17T06:20:12.453Z,0.00
2019-01-17T06:21:12.435Z,0.00
2019-01-17T06:22:12.279Z,0.00
2019-01-17T06:23:12.191Z,0.00
2019-01-17T06:24:12.215Z,0.00
2019-01-17T06:25:12.043Z,0.00
2019-01-17T06:26:12.351Z,0.00
2019-01-17T06:27:11.929Z,0.00
2019-01-17T06:28:11.765Z,0.00
2019-01-17T06:29:11.738Z,0.00
2019-01-17T06:30:11.592Z,0.00
2019-01-17T06:31:11.582Z,0.00
2019-01-17T06:32:11.430Z,0.00
2019-01-17T06:33:11.356Z,0.00
2019-01-17T06:34:11.257Z,0.00
2019-01-17T06:35:11.267Z,0.00
2019-01-17T06:36:11.097Z,0.00
2019-01-17T06:37:11.083Z,0.00
2019-01-17T06:38:10.910Z,0.00
2019-01-17T06:39:10.883Z,0.00
2019-01-17T06:40:10.743Z,0.00
2019-01-17T06:41:10.829Z,0.00
2019-01-17T06:42:10.572Z,0.00
2019-01-17T06:43:10.503Z,0.00
2019-01-17T06:44:10.397Z,0.00
2019-01-17T06:45:10.415Z,0.00
2019-01-17T06:46:10.229Z,0.00
2019-01-17T06:47:10.156Z,0.00
2019-01-17T06:48:10.142Z,0.00
2019-01-17T06:49:09.962Z,0.00
2019-01-17T06:50:09.880Z,0.00
2019-01-17T06:51:09.844Z,0.00
2019-01-17T06:52:09.728Z,0.00
2019-01-17T06:53:09.624Z,0.00
2019-01-17T06:54:09.563Z,0.00
2019-01-17T06:55:09.458Z,0.00
2019-01-17T06:56:09.371Z,0.00
2019-01-17T06:57:09.312Z,0.00
2019-01-17T06:58:09.197Z,0.00
2019-01-17T06:59:09.190Z,0.00
2019-01-17T07:00:09.024Z,0.00
2019-01-17T07:01:09.101Z,0.00
2019-01-17T07:02:08.872Z,0.00
2019-01-17T07:03:08.779Z,0.00
2019-01-17T07:04:08.708Z,0.00
2019-01-17T07:05:08.595Z,0.00
2019-01-17T07:06:08.515Z,0.00
2019-01-17T07:07:08.567Z,0.00
2019-01-17T07:08:08.339Z,0.00
2019-01-17T07:09:08.252Z,0.00
2019-01-17T07:10:08.344Z,0.00
2019-01-17T07:11:08.083Z,0.00
2019-01-17T07:12:08.008Z,0.00
2019-01-17T07:13:07.950Z,0.00
2019-01-17T07:14:07.828Z,0.00
2019-01-17T07:15:07.964Z,5.63
2019-01-17T07:16:07.833Z,5.63
2019-01-17T07:17:07.586Z,5.63
2019-01-17T07:18:07.572Z,5.63
2019-01-17T07:19:07.403Z,5.63
2019-01-17T07:20:07.319Z,5.63
2019-01-17T07:21:07.387Z,5.63
2019-01-17T07:22:07.155Z,11.25
2019-01-17T07:23:07.059Z,11.25
2019-01-17T07:24:07.002Z,11.25
2019-01-17T07:25:06.892Z,11.25
2019-01-17T07:26:06.812Z,16.88
2019-01-17T07:27:06.746Z,16.88
2019-01-17T07:28:06.631Z,16.88
2019-01-17T07:29:06.547Z,16.88
2019-01-17T07:30:06.456Z,16.88
2019-01-17T07:31:06.382Z,16.88
2019-01-17T07:32:06.299Z,16.88
2019-01-17T07:33:06.214Z,11.25
2019-01-17T07:34:06.111Z,11.25
2019-01-17T07:35:06.032Z,11.25
2019-01-17T07:36:05.941Z,16.88
2019-01-17T07:37:05.861Z,16.88
2019-01-17T07:38:05.790Z,22.50
2019-01-17T07:39:05.689Z,22.50
2019-01-17T07:40:05.598Z,22.50
2019-01-17T07:41:05.527Z,22.50
2019-01-17T07:42:05.436Z,22.50
2019-01-17T07:43:05.355Z,28.13
2019-01-17T07:44:05.258Z,33.75
2019-01-17T07:45:05.186Z,45.00
2019-01-17T07:46:05.088Z,50.63
2019-01-17T07:47:05.003Z,56.25
2019-01-17T07:48:04.930Z,56.25
2019-01-17T07:49:04.827Z,61.88
2019-01-17T07:50:04.743Z,61.88
2019-01-17T07:51:04.660Z,56.25
2019-01-17T07:52:04.571Z,50.63
2019-01-17T07:53:04.508Z,45.00
2019-01-17T07:54:04.394Z,39.38
2019-01-17T07:55:04.325Z,28.13
2019-01-17T07:56:04.239Z,28.13
2019-01-17T07:57:04.146Z,39.38
2019-01-17T07:58:04.067Z,50.63
2019-01-17T07:59:03.980Z,50.63
2019-01-17T08:00:03.902Z,56.25
2019-01-17T08:01:03.804Z,61.88
2019-01-17T08:02:03.710Z,73.13
2019-01-17T08:03:03.646Z,78.75
2019-01-17T08:04:03.542Z,78.75
2019-01-17T08:05:03.466Z,67.50
2019-01-17T08:06:03.390Z,56.25
2019-01-17T08:07:03.287Z,61.88
2019-01-17T08:08:03.231Z,61.88
2019-01-17T08:09:03.126Z,61.88
2019-01-17T08:10:03.030Z,61.88
2019-01-17T08:11:02.941Z,61.88
2019-01-17T08:12:05.167Z,67.50
2019-01-17T08:13:02.773Z,67.50
2019-01-17T08:14:02.699Z,67.50
2019-01-17T08:15:02.610Z,67.50
2019-01-17T08:16:02.515Z,73.13
2019-01-17T08:17:02.431Z,61.88
2019-01-17T08:18:02.355Z,61.88
2019-01-17T08:19:02.273Z,78.75
2019-01-17T08:20:02.172Z,95.63
2019-01-17T08:21:02.096Z,112.50
2019-01-17T08:22:02.001Z,118.13
2019-01-17T08:23:01.925Z,135.00
2019-01-17T08:24:01.854Z,146.25
2019-01-17T08:25:01.748Z,129.38
2019-01-17T08:26:01.667Z,118.13
2019-01-17T08:27:01.584Z,106.88
2019-01-17T08:28:01.489Z,101.25
2019-01-17T08:29:01.418Z,118.13
2019-01-17T08:30:01.324Z,129.38
2019-01-17T08:31:01.233Z,123.75
2019-01-17T08:32:01.150Z,140.63
2019-01-17T08:33:01.079Z,129.38
2019-01-17T08:34:00.993Z,129.38
2019-01-17T08:35:00.893Z,157.50
2019-01-17T08:36:00.827Z,191.25
2019-01-17T08:37:00.723Z,208.13
2019-01-17T08:38:00.641Z,208.13
2019-01-17T08:39:00.585Z,196.88
2019-01-17T08:40:00.541Z,191.25
2019-01-17T08:41:00.385Z,185.63
2019-01-17T08:42:00.306Z,180.00
2019-01-17T08:43:00.216Z,174.38
2019-01-17T08:44:00.137Z,174.38
2019-01-17T08:45:00.199Z,185.63
2019-01-17T08:45:59.957Z,202.50
2019-01-17T08:46:59.871Z,230.63
2019-01-17T08:47:59.797Z,236.25
2019-01-17T08:48:59.698Z,230.63
2019-01-17T08:49:59.643Z,208.13
2019-01-17T08:50:59.534Z,185.63
2019-01-17T08:51:59.461Z,168.75
2019-01-17T08:52:59.367Z,157.50
2019-01-17T08:53:59.279Z,151.88
2019-01-17T08:54:59.202Z,146.25
2019-01-17T08:56:00.829Z,140.63
2019-01-17T08:56:59.020Z,123.75
2019-01-17T08:57:58.942Z,106.88
2019-01-17T08:58:58.850Z,118.13
2019-01-17T08:59:58.788Z,129.38
2019-01-17T09:00:58.677Z,140.63
2019-01-17T09:01:58.601Z,146.25
2019-01-17T09:02:58.518Z,180.00
2019-01-17T09:03:58.427Z,196.88
2019-01-17T09:04:58.364Z,208.13
2019-01-17T09:05:58.254Z,213.75
2019-01-17T09:06:58.167Z,225.00
2019-01-17T09:07:58.107Z,241.88
2019-01-17T09:08:58.000Z,264.38
2019-01-17T09:09:57.943Z,292.50
2019-01-17T09:10:57.852Z,309.38
2019-01-17T09:11:57.744Z,315.00
2019-01-17T09:12:57.670Z,303.75
2019-01-17T09:13:57.578Z,275.63
2019-01-17T09:14:57.491Z,241.88
2019-01-17T09:15:57.491Z,213.75
2019-01-17T09:16:57.322Z,208.13
2019-01-17T09:17:57.237Z,208.13
2019-01-17T09:18:57.157Z,202.50
2019-01-17T09:19:57.085Z,191.25
2019-01-17T09:20:56.997Z,163.13
2019-01-17T09:21:56.893Z,146.25
2019-01-17T09:22:56.822Z,140.63
2019-01-17T09:23:56.726Z,146.25
2019-01-17T09:24:56.640Z,174.38
2019-01-17T09:25:56.575Z,196.88
2019-01-17T09:26:56.474Z,213.75
2019-01-17T09:27:56.383Z,208.13
2019-01-17T09:28:56.304Z,202.50
2019-01-17T09:29:56.214Z,208.13
2019-01-17T09:30:56.147Z,196.88
2019-01-17T09:31:56.055Z,163.13
2019-01-17T09:32:55.959Z,163.13
2019-01-17T09:33:55.881Z,174.38
2019-01-17T09:34:55.801Z,163.13
2019-01-17T09:35:55.719Z,146.25
2019-01-17T09:36:55.627Z,123.75
2019-01-17T09:37:55.551Z,123.75
2019-01-17T09:38:55.453Z,118.13
2019-01-17T09:39:55.366Z,146.25
2019-01-17T09:40:55.306Z,174.38
2019-01-17T09:41:55.203Z,174.38
2019-01-17T09:42:55.114Z,163.13
2019-01-17T09:43:55.030Z,129.38
2019-01-17T09:44:54.949Z,157.50
2019-01-17T09:45:54.897Z,151.88
2019-01-17T09:46:54.777Z,129.38
2019-01-17T09:47:54.706Z,146.25
2019-01-17T09:48:54.600Z,129.38
2019-01-17T09:49:54.518Z,106.88
2019-01-17T09:50:54.437Z,106.88
2019-01-17T09:51:54.361Z,106.88
2019-01-17T09:52:54.261Z,123.75
2019-01-17T09:53:54.182Z,129.38
2019-01-17T09:54:54.094Z,106.88
2019-01-17T09:55:54.014Z,90.00
2019-01-17T09:56:53.935Z,90.00
2019-01-17T09:57:53.844Z,112.50
2019-01-17T09:58:53.759Z,146.25
2019-01-17T09:59:53.674Z,174.38
2019-01-17T10:00:53.580Z,208.13
2019-01-17T10:01:53.519Z,230.63
2019-01-17T10:02:53.412Z,185.63
2019-01-17T10:03:53.332Z,163.13
2019-01-17T10:04:53.241Z,146.25
2019-01-17T10:05:53.170Z,129.38
2019-01-17T10:06:53.083Z,129.38
2019-01-17T10:07:52.994Z,135.00
2019-01-17T10:08:52.903Z,129.38
2019-01-17T10:09:52.827Z,123.75
2019-01-17T10:10:52.734Z,118.13
2019-01-17T10:11:52.681Z,112.50
2019-01-17T10:12:52.567Z,118.13
2019-01-17T10:13:52.480Z,95.63
2019-01-17T10:14:52.402Z,73.13
2019-01-17T10:15:52.319Z,78.75
2019-01-17T10:16:52.232Z,73.13
2019-01-17T10:17:52.138Z,61.88
2019-01-17T10:18:52.050Z,67.50
2019-01-17T10:19:51.969Z,73.13
2019-01-17T10:20:51.882Z,78.75
2019-01-17T10:21:51.811Z,84.38
2019-01-17T10:22:51.720Z,95.63
2019-01-17T10:23:51.629Z,112.50
2019-01-17T10:24:51.541Z,123.75
2019-01-17T10:25:51.462Z,146.25
2019-01-17T10:26:51.377Z,163.13
2019-01-17T10:27:51.307Z,191.25
2019-01-17T10:28:51.198Z,213.75
2019-01-17T10:29:51.110Z,219.38
2019-01-17T10:30:51.033Z,213.75
2019-01-17T10:31:50.944Z,225.00
2019-01-17T10:32:50.874Z,208.13
2019-01-17T10:33:50.771Z,219.38
2019-01-17T10:34:50.699Z,202.50
2019-01-17T10:35:50.602Z,202.50
2019-01-17T10:36:50.525Z,151.88
2019-01-17T10:37:50.448Z,135.00
2019-01-17T10:38:50.360Z,129.38
2019-01-17T10:39:50.267Z,112.50
2019-01-17T10:40:50.206Z,90.00
2019-01-17T10:41:50.096Z,101.25
2019-01-17T10:42:50.069Z,101.25
2019-01-17T10:43:49.919Z,106.88
2019-01-17T10:44:49.836Z,123.75
2019-01-17T10:45:49.748Z,168.75
2019-01-17T10:46:49.658Z,180.00
2019-01-17T10:47:49.575Z,174.38
2019-01-17T10:48:49.509Z,174.38
2019-01-17T10:49:49.396Z,174.38
2019-01-17T10:50:49.312Z,174.38
2019-01-17T10:51:49.537Z,196.88
2019-01-17T10:52:49.143Z,247.50
2019-01-17T10:53:49.077Z,309.38
2019-01-17T10:54:48.969Z,343.13
2019-01-17T10:55:48.887Z,354.38
2019-01-17T10:56:48.804Z,360.00
2019-01-17T10:57:48.711Z,360.00
2019-01-17T10:58:48.638Z,399.38
2019-01-17T10:59:48.550Z,382.50
2019-01-17T11:00:48.454Z,320.63
2019-01-17T11:01:48.380Z,281.25
2019-01-17T11:02:48.284Z,281.25
2019-01-17T11:03:48.222Z,270.00
2019-01-17T11:04:48.110Z,292.50
2019-01-17T11:05:48.027Z,298.13
2019-01-17T11:06:47.941Z,258.75
2019-01-17T11:07:47.863Z,264.38
2019-01-17T11:08:47.802Z,241.88
2019-01-17T11:09:47.681Z,247.50
2019-01-17T11:10:47.598Z,225.00
2019-01-17T11:11:47.517Z,219.38
2019-01-17T11:12:47.419Z,191.25
2019-01-17T11:13:47.355Z,180.00
2019-01-17T11:14:47.265Z,151.88
2019-01-17T11:15:47.179Z,151.88
2019-01-17T11:16:47.080Z,191.25
2019-01-17T11:17:47.001Z,196.88
2019-01-17T11:18:46.908Z,202.50
2019-01-17T11:19:46.852Z,247.50
2019-01-17T11:20:46.742Z,236.25
2019-01-17T11:21:46.660Z,219.38
2019-01-17T11:22:46.567Z,219.38
2019-01-17T11:23:46.480Z,174.38
2019-01-17T11:24:46.405Z,168.75
2019-01-17T11:25:46.319Z,191.25
2019-01-17T11:26:46.226Z,236.25
2019-01-17T11:27:46.144Z,258.75
2019-01-17T11:28:46.051Z,309.38
2019-01-17T11:29:45.984Z,371.25
2019-01-17T11:30:45.877Z,433.13
2019-01-17T11:31:45.806Z,405.00
2019-01-17T11:32:45.705Z,320.63
2019-01-17T11:33:45.618Z,258.75
2019-01-17T11:34:45.574Z,191.25
2019-01-17T11:35:45.450Z,168.75
2019-01-17T11:36:45.359Z,163.13
2019-01-17T11:37:45.282Z,196.88
2019-01-17T11:38:45.192Z,219.38
2019-01-17T11:39:45.106Z,241.88
2019-01-17T11:40:45.042Z,331.88
2019-01-17T11:41:44.933Z,343.13
2019-01-17T11:42:44.847Z,337.50
2019-01-17T11:43:44.769Z,399.38
2019-01-17T11:44:44.673Z,382.50
2019-01-17T11:45:44.604Z,348.75
2019-01-17T11:46:44.502Z,270.00
2019-01-17T11:47:44.412Z,213.75
2019-01-17T11:48:44.336Z,230.63
2019-01-17T11:49:44.240Z,281.25
2019-01-17T11:50:44.173Z,270.00
2019-01-17T11:51:44.082Z,202.50
2019-01-17T11:52:43.984Z,213.75
2019-01-17T11:53:43.904Z,208.13
2019-01-17T11:54:43.820Z,225.00
2019-01-17T11:55:43.739Z,163.13
2019-01-17T11:56:43.644Z,163.13
2019-01-17T11:57:43.590Z,168.75
2019-01-17T11:58:43.468Z,185.63
2019-01-17T11:59:43.396Z,230.63
2019-01-17T12:00:43.314Z,196.88
2019-01-17T12:01:43.218Z,168.75
2019-01-17T12:02:43.132Z,135.00
2019-01-17T12:03:43.056Z,106.88
2019-01-17T12:04:43.002Z,146.25
2019-01-17T12:05:42.901Z,157.50
2019-01-17T12:06:42.781Z,219.38
2019-01-17T12:07:42.709Z,343.13
2019-01-17T12:08:42.612Z,399.38
2019-01-17T12:09:42.535Z,382.50
2019-01-17T12:10:42.436Z,331.88
2019-01-17T12:11:42.378Z,258.75
2019-01-17T12:12:42.265Z,253.13
2019-01-17T12:13:42.187Z,225.00
2019-01-17T12:14:42.095Z,253.13
2019-01-17T12:15:42.007Z,264.38
2019-01-17T12:16:41.942Z,258.75
2019-01-17T12:17:41.838Z,253.13
2019-01-17T12:18:41.748Z,230.63
2019-01-17T12:19:41.668Z,286.88
2019-01-17T12:20:41.578Z,337.50
2019-01-17T12:21:41.506Z,337.50
2019-01-17T12:22:41.423Z,326.25
2019-01-17T12:23:41.327Z,343.13
2019-01-17T12:24:41.283Z,331.88
2019-01-17T12:25:41.154Z,303.75
2019-01-17T12:26:47.294Z,275.63
2019-01-17T12:27:42.673Z,253.13
2019-01-17T12:28:40.900Z,236.25
2019-01-17T12:29:40.807Z,225.00
2019-01-17T12:30:40.729Z,225.00
2019-01-17T12:31:40.654Z,241.88
2019-01-17T12:32:40.552Z,253.13
2019-01-17T12:33:40.464Z,258.75
2019-01-17T12:34:40.386Z,286.88
2019-01-17T12:35:40.287Z,331.88
2019-01-17T12:36:40.217Z,376.88
2019-01-17T12:37:40.126Z,427.50
2019-01-17T12:38:40.035Z,472.50
2019-01-17T12:39:39.941Z,506.25
2019-01-17T12:40:39.860Z,506.25
2019-01-17T12:41:39.787Z,545.63
2019-01-17T12:42:39.689Z,511.88
2019-01-17T12:43:39.617Z,388.13
2019-01-17T12:44:39.516Z,348.75
2019-01-17T12:45:39.432Z,421.88
2019-01-17T12:46:39.357Z,483.75
2019-01-17T12:47:39.267Z,433.13
2019-01-17T12:48:39.179Z,365.63
2019-01-17T12:49:39.085Z,298.13
2019-01-17T12:50:38.998Z,292.50
2019-01-17T12:51:38.933Z,236.25
2019-01-17T12:52:38.840Z,241.88
2019-01-17T12:53:38.746Z,230.63
2019-01-17T12:54:38.662Z,270.00
2019-01-17T12:55:38.579Z,320.63
2019-01-17T12:56:38.487Z,360.00
2019-01-17T12:57:38.427Z,388.13